Au Sable Forks, NY (12912)

1:58 AM EDT on October 23, 2014 (GMT -0400)
AuSable River | Change Station
CLOSE
Current Station
Personal Weather Station
Location: Wilmington, NY
Elevation: 1014 ft
Nearby Weather Stations

Elev 1014 ft 44.40 °N, 73.80 °W | Updated 2 minutes ago

Overcast
Overcast
45.0 °F
Feels Like 45 °F
N
0.0
Wind Variable Wind from West

Today
High -- | Low -- °F
--% Chance of Precip.
Yesterday
High -- | Low -- °F
Precip. -- in
7:20 AM 5:57 PM
Waning Crescent, 0% visible
Pressure 30.09 in
Visibility 10.0 miles
Clouds Overcast 4000 ft
Windchill 45 °F
Dew Point 40 °F
Humidity 82%
Rainfall 0.00 in
Snow Depth Not available.
UV 0 out of 12
Pollen .10 out of 12
Air Quality Not available.
Flu Activity Sporadic
METAR KPBG 230553Z AUTO 36016KT 10SM OVC040 07/02 A3009 RMK AO2 SLP190 60000 T00720017 10106 20072 56014

More Conditions Fewer Conditions

Pressure 30.09 in
Visibility 10.0 miles
Clouds Overcast 4000 ft
Windchill 45 °F
Dew Point 40 °F
Humidity 82%
Rainfall 0.00 in
Snow Depth Not available.
UV 0 out of 12
Pollen .10 out of 12
Air Quality Not available.
Flu Activity Sporadic
METAR KPBG 230553Z AUTO 36016KT 10SM OVC040 07/02 A3009 RMK AO2 SLP190 60000 T00720017 10106 20072 56014

More Conditions Fewer Conditions

10-Day Weather Forecast

Almanac

Astronomy

Oct. 23, 2014 Rise Set
Actual Time 7:20 AM EDT 5:57 PM EDT
Civil Twilight 6:50 AM EDT 6:26 PM EDT
Nautical Twilight 6:16 AM EDT 7:00 PM EDT
Astronomical Twilight 5:42 AM EDT 7:34 PM EDT
Moon 6:56 AM EDT 5:57 PM EDT
Length of Visible Light 11h 36m
Length of Day
10h 37m
Tomorrow will be 2m 53s shorter.
Waning Crescent, 0% of the Moon is Illuminated
Today
Waning Crescent
Oct 23
New
Oct 30
First Quarter
Nov 6
Full
Nov 14
Last Quarter

Today's Extremes

State Highs State Lows

Community

WunderPhotos

Upload Photos

1,764,188 photos uploaded!

Nearby

Air Quality

  Air Quality AQ Index Pollutant
Thursday Good
PM2.5

Snow Depth

Station Depth Elevation
No new snow has been reported.

Earthquake Activity

City Distance Mag. Time & Date
No recent earthquake activity has been reported nearby.
Minimum magnitude displayed is 2.5.

Coastal Water Temperatures

Place Temperature
No Stations Reporting

Nearby Weather Stations